createdAt,value
2017-11-24T00:00:38.908Z,22.1
2017-11-24T00:01:40.798Z,22.1
2017-11-24T00:02:42.399Z,22.1
2017-11-24T00:03:44.297Z,22.1
2017-11-24T00:04:45.919Z,22.1
2017-11-24T00:05:47.539Z,22.1
2017-11-24T00:06:49.433Z,22.1
2017-11-24T00:07:51.056Z,22
2017-11-24T00:08:52.955Z,22.1
2017-11-24T00:09:54.554Z,22.1
2017-11-24T00:10:56.175Z,22.1
2017-11-24T00:11:57.800Z,22
2017-11-24T00:12:59.701Z,22
2017-11-24T00:14:01.322Z,22.1
2017-11-24T00:15:02.922Z,22.1
2017-11-24T00:16:04.821Z,22.1
2017-11-24T00:17:06.145Z,22
2017-11-24T00:18:07.745Z,22.1
2017-11-24T00:19:09.087Z,22.1
2017-11-24T00:20:10.984Z,22
2017-11-24T00:21:12.330Z,22.1
2017-11-24T00:22:14.230Z,22.1
2017-11-24T00:23:15.827Z,22.1
2017-11-24T00:24:17.724Z,22.1
2017-11-24T00:25:19.622Z,22.1
2017-11-24T00:26:21.225Z,22.1
2017-11-24T00:27:22.845Z,22
2017-11-24T00:28:24.462Z,22.1
2017-11-24T00:29:25.510Z,22
2017-11-24T00:30:27.106Z,22.1
2017-11-24T00:31:28.428Z,22.1
2017-11-24T00:32:30.046Z,22
2017-11-24T00:33:31.647Z,22.1
2017-11-24T00:34:32.974Z,22
2017-11-24T00:35:34.868Z,22
2017-11-24T00:36:36.489Z,22
2017-11-24T00:37:37.837Z,22
2017-11-24T00:38:39.449Z,22.1
2017-11-24T00:39:41.052Z,22.1
2017-11-24T00:40:42.949Z,22.1
2017-11-24T00:41:44.568Z,22
2017-11-24T00:42:46.471Z,22
2017-11-24T00:43:48.397Z,22
2017-11-24T00:44:50.019Z,22
2017-11-24T00:45:51.916Z,22
2017-11-24T00:46:53.536Z,22.1
2017-11-24T00:47:55.436Z,22.1
2017-11-24T00:48:56.816Z,22
2017-11-24T00:49:58.713Z,22
2017-11-24T00:51:00.311Z,22
2017-11-24T00:52:02.208Z,22
2017-11-24T00:53:03.810Z,22
2017-11-24T00:54:05.706Z,22
2017-11-24T00:55:07.328Z,22
2017-11-24T00:56:09.226Z,22
2017-11-24T00:57:10.829Z,22
2017-11-24T00:58:12.721Z,22
2017-11-24T00:59:14.342Z,22
2017-11-24T01:00:15.962Z,22
2017-11-24T01:01:17.287Z,22
2017-11-24T01:02:19.187Z,22
2017-11-24T01:03:20.802Z,22
2017-11-24T01:04:22.698Z,22
2017-11-24T01:05:24.594Z,22
2017-11-24T01:06:26.215Z,22
2017-11-24T01:07:27.854Z,22
2017-11-24T01:08:29.473Z,22
2017-11-24T01:09:31.398Z,22
2017-11-24T01:10:32.721Z,22
2017-11-24T01:11:34.620Z,22
2017-11-24T01:12:36.241Z,22
2017-11-24T01:13:37.861Z,22
2017-11-24T01:14:39.182Z,22
2017-11-24T01:15:41.082Z,22
2017-11-24T01:16:42.978Z,22
2017-11-24T01:17:44.302Z,22
2017-11-24T01:18:45.952Z,22
2017-11-24T01:19:47.851Z,22
2017-11-24T01:20:49.749Z,22
2017-11-24T01:21:51.073Z,22
2017-11-24T01:22:52.695Z,22
2017-11-24T01:23:54.039Z,22
2017-11-24T01:24:55.937Z,22
2017-11-24T01:25:57.835Z,22
2017-11-24T01:26:59.765Z,22
2017-11-24T01:28:01.666Z,22
2017-11-24T01:29:03.572Z,22
2017-11-24T01:30:05.475Z,22
2017-11-24T01:31:07.374Z,22
2017-11-24T01:32:08.995Z,22
2017-11-24T01:33:10.897Z,22.1
2017-11-24T01:34:12.518Z,22
2017-11-24T01:35:14.417Z,22
2017-11-24T01:36:16.316Z,22
2017-11-24T01:37:17.936Z,22
2017-11-24T01:38:19.296Z,22
2017-11-24T01:39:21.195Z,21.9
2017-11-24T01:40:22.520Z,22
2017-11-24T01:41:24.143Z,22
2017-11-24T01:42:26.043Z,22
2017-11-24T01:43:27.944Z,21.9
2017-11-24T01:44:29.285Z,22
2017-11-24T01:45:31.182Z,22
2017-11-24T01:46:33.081Z,22
2017-11-24T01:47:34.989Z,22
2017-11-24T01:48:36.607Z,22
2017-11-24T01:49:37.928Z,21.9
2017-11-24T01:50:39.249Z,22
2017-11-24T01:51:40.592Z,22
2017-11-24T01:52:42.209Z,22
2017-11-24T01:53:43.545Z,22
2017-11-24T01:54:45.445Z,22
2017-11-24T01:55:47.346Z,21.9
2017-11-24T01:56:49.245Z,22
2017-11-24T01:57:51.179Z,21.9
2017-11-24T01:58:53.079Z,21.9
2017-11-24T01:59:54.685Z,21.9
2017-11-24T02:00:56.279Z,22
2017-11-24T02:01:57.908Z,21.9
2017-11-24T02:02:59.250Z,22
2017-11-24T02:04:00.868Z,21.9
2017-11-24T02:05:02.765Z,21.9
2017-11-24T02:06:04.363Z,21.9
2017-11-24T02:07:06.261Z,21.9
2017-11-24T02:08:07.884Z,22
2017-11-24T02:09:09.783Z,21.9
2017-11-24T02:10:11.399Z,21.9
2017-11-24T02:11:12.749Z,21.9
2017-11-24T02:12:14.645Z,21.9
2017-11-24T02:13:15.978Z,21.9
2017-11-24T02:14:17.582Z,22
2017-11-24T02:15:19.483Z,21.9
2017-11-24T02:16:21.380Z,21.9
2017-11-24T02:17:23.280Z,21.9
2017-11-24T02:18:24.347Z,21.9
2017-11-24T02:19:25.694Z,22
2017-11-24T02:20:27.596Z,21.9
2017-11-24T02:21:29.498Z,21.9
2017-11-24T02:22:31.395Z,21.9
2017-11-24T02:23:33.018Z,22
2017-11-24T02:24:34.635Z,22
2017-11-24T02:25:36.533Z,21.9
2017-11-24T02:26:38.442Z,22
2017-11-24T02:27:40.333Z,21.9
2017-11-24T02:28:42.232Z,21.9
2017-11-24T02:29:44.161Z,21.9
2017-11-24T02:30:45.756Z,21.9
2017-11-24T02:31:47.361Z,21.9
2017-11-24T02:32:48.988Z,22
2017-11-24T02:33:50.336Z,21.9
2017-11-24T02:34:52.247Z,21.9
2017-11-24T02:35:53.850Z,21.9
2017-11-24T02:36:55.458Z,21.9
2017-11-24T02:37:56.804Z,21.9
2017-11-24T02:38:58.403Z,21.9
2017-11-24T02:40:00.301Z,22
2017-11-24T02:41:01.920Z,21.9
2017-11-24T02:42:03.238Z,21.9
2017-11-24T02:43:04.563Z,21.9
2017-11-24T02:44:06.157Z,21.9
2017-11-24T02:45:07.504Z,22
2017-11-24T02:46:09.154Z,21.9
2017-11-24T02:47:11.054Z,21.9
2017-11-24T02:48:12.962Z,21.9
2017-11-24T02:49:14.580Z,21.9
2017-11-24T02:50:15.628Z,21.8
2017-11-24T02:51:17.523Z,21.9
2017-11-24T02:52:19.467Z,21.9
2017-11-24T02:53:21.376Z,21.9
2017-11-24T02:54:23.282Z,21.9
2017-11-24T02:55:24.916Z,21.9
2017-11-24T02:56:26.539Z,21.9
2017-11-24T02:57:28.173Z,21.9
2017-11-24T02:58:29.796Z,21.9
2017-11-24T02:59:31.693Z,21.9
2017-11-24T03:00:33.591Z,21.9
2017-11-24T03:01:35.209Z,21.8
2017-11-24T03:02:37.108Z,21.9
2017-11-24T03:03:38.471Z,21.9
2017-11-24T03:04:40.380Z,22
2017-11-24T03:05:42.280Z,21.9
2017-11-24T03:06:43.349Z,21.9
2017-11-24T03:07:45.246Z,21.9
2017-11-24T03:08:46.850Z,21.9
2017-11-24T03:09:48.472Z,21.9
2017-11-24T03:10:50.369Z,21.9
2017-11-24T03:11:51.712Z,21.9
2017-11-24T03:12:53.338Z,21.9
2017-11-24T03:13:55.234Z,21.9
2017-11-24T03:14:56.556Z,21.8
2017-11-24T03:15:57.900Z,22
2017-11-24T03:16:59.522Z,21.9
2017-11-24T03:18:01.121Z,21.9
2017-11-24T03:19:02.475Z,21.9
2017-11-24T03:20:04.372Z,21.9
2017-11-24T03:21:05.993Z,21.9
2017-11-24T03:22:07.613Z,21.9
2017-11-24T03:23:09.230Z,21.9
2017-11-24T03:24:11.128Z,21.9
2017-11-24T03:25:13.025Z,21.9
2017-11-24T03:26:14.647Z,21.9
2017-11-24T03:27:16.267Z,21.9
2017-11-24T03:28:18.163Z,21.9
2017-11-24T03:29:19.763Z,21.9
2017-11-24T03:30:21.373Z,21.8
2017-11-24T03:31:23.280Z,21.9
2017-11-24T03:32:24.875Z,21.9
2017-11-24T03:33:26.772Z,21.9
2017-11-24T03:34:28.117Z,21.9
2017-11-24T03:35:30.020Z,21.9
2017-11-24T03:36:31.641Z,21.9
2017-11-24T03:37:33.565Z,21.8
2017-11-24T03:38:34.909Z,21.9
2017-11-24T03:39:36.507Z,21.9
2017-11-24T03:40:37.852Z,21.9
2017-11-24T03:41:39.751Z,21.9
2017-11-24T03:42:41.647Z,21.9
2017-11-24T03:43:43.283Z,22
2017-11-24T03:44:44.628Z,21.9
2017-11-24T03:45:46.251Z,21.9
2017-11-24T03:46:48.146Z,21.8
2017-11-24T03:47:50.048Z,21.8
2017-11-24T03:48:51.667Z,21.8
2017-11-24T03:49:52.991Z,21.9
2017-11-24T03:50:54.890Z,21.8
2017-11-24T03:51:55.936Z,21.9
2017-11-24T03:52:57.835Z,21.8
2017-11-24T03:53:59.738Z,21.8
2017-11-24T03:55:01.352Z,21.8
2017-11-24T03:56:02.975Z,21.8
2017-11-24T03:57:04.873Z,21.8
2017-11-24T03:58:06.769Z,21.9
2017-11-24T03:59:08.668Z,21.9
2017-11-24T04:00:10.288Z,21.8
2017-11-24T04:01:11.887Z,21.9
2017-11-24T04:02:13.784Z,21.9
2017-11-24T04:03:15.104Z,21.8
2017-11-24T04:04:16.723Z,21.8
2017-11-24T04:05:18.342Z,21.9
2017-11-24T04:06:20.242Z,21.8
2017-11-24T04:07:21.873Z,21.9
2017-11-24T04:08:23.494Z,21.9
2017-11-24T04:09:25.098Z,21.8
2017-11-24T04:10:27.000Z,21.9
2017-11-24T04:11:28.898Z,21.8
2017-11-24T04:12:30.797Z,21.8
2017-11-24T04:13:32.696Z,21.8
2017-11-24T04:14:34.594Z,21.9
2017-11-24T04:15:36.498Z,21.8
2017-11-24T04:16:38.397Z,21.9
2017-11-24T04:17:40.293Z,21.8
2017-11-24T04:18:41.893Z,21.8
2017-11-24T04:19:43.526Z,21.9
2017-11-24T04:20:45.433Z,21.9
2017-11-24T04:21:47.332Z,21.8
2017-11-24T04:22:49.240Z,21.8
2017-11-24T04:23:50.860Z,21.8
2017-11-24T04:24:52.762Z,21.9
2017-11-24T04:25:54.658Z,21.8
2017-11-24T04:26:56.275Z,21.8
2017-11-24T04:27:57.894Z,21.9
2017-11-24T04:28:59.793Z,21.9
2017-11-24T04:30:01.416Z,21.9
2017-11-24T04:31:02.736Z,21.9
2017-11-24T04:32:04.365Z,21.9
2017-11-24T04:33:05.985Z,21.9
2017-11-24T04:34:07.881Z,21.9
2017-11-24T04:35:09.499Z,21.8
2017-11-24T04:36:10.853Z,21.8
2017-11-24T04:37:12.753Z,21.8
2017-11-24T04:38:14.101Z,21.8
2017-11-24T04:39:15.745Z,21.9
2017-11-24T04:40:17.342Z,21.9
2017-11-24T04:41:18.962Z,21.9
2017-11-24T04:42:20.286Z,21.9
2017-11-24T04:43:21.892Z,21.8
2017-11-24T04:44:23.238Z,21.9
2017-11-24T04:45:24.860Z,21.9
2017-11-24T04:46:26.775Z,21.8
2017-11-24T04:47:28.386Z,21.9
2017-11-24T04:48:30.300Z,21.9
2017-11-24T04:49:32.200Z,21.9
2017-11-24T04:50:33.822Z,21.9
2017-11-24T04:51:35.143Z,21.9
2017-11-24T04:52:36.465Z,21.8
2017-11-24T04:53:38.087Z,21.9
2017-11-24T04:54:39.720Z,21.8
2017-11-24T04:55:41.069Z,21.8
2017-11-24T04:56:42.966Z,21.8
2017-11-24T04:57:44.308Z,21.8
2017-11-24T04:58:46.208Z,21.9
2017-11-24T04:59:47.837Z,21.8
2017-11-24T05:00:49.736Z,21.8
2017-11-24T05:01:51.637Z,21.8
2017-11-24T05:02:53.534Z,21.8
2017-11-24T05:03:54.860Z,21.9
2017-11-24T05:04:56.761Z,21.8
2017-11-24T05:05:58.658Z,21.8
2017-11-24T05:07:00.553Z,21.7
2017-11-24T05:08:01.899Z,21.8
2017-11-24T05:09:03.546Z,21.9
2017-11-24T05:10:05.167Z,21.9
2017-11-24T05:11:06.799Z,21.9
2017-11-24T05:12:07.864Z,21.9
2017-11-24T05:13:09.772Z,21.9
2017-11-24T05:14:11.381Z,21.9
2017-11-24T05:15:12.981Z,21.9
2017-11-24T05:16:14.604Z,21.9
2017-11-24T05:17:16.224Z,21.8
2017-11-24T05:18:18.120Z,21.8
2017-11-24T05:19:19.743Z,21.9
2017-11-24T05:20:21.367Z,21.8
2017-11-24T05:21:22.968Z,21.8
2017-11-24T05:22:24.310Z,21.9
2017-11-24T05:23:26.211Z,22
2017-11-24T05:24:27.814Z,21.9
2017-11-24T05:25:29.159Z,21.9
2017-11-24T05:26:31.056Z,21.9
2017-11-24T05:27:32.657Z,21.9
2017-11-24T05:28:34.574Z,21.9
2017-11-24T05:29:36.471Z,22
2017-11-24T05:30:37.513Z,21.8
2017-11-24T05:31:39.415Z,21.9
2017-11-24T05:32:40.752Z,21.9
2017-11-24T05:33:42.085Z,21.9
2017-11-24T05:34:43.995Z,21.9
2017-11-24T05:35:45.887Z,21.9
2017-11-24T05:36:47.798Z,22
2017-11-24T05:37:49.418Z,21.9
2017-11-24T05:38:51.052Z,22
2017-11-24T05:39:52.949Z,21.9
2017-11-24T05:40:54.850Z,22
2017-11-24T05:41:56.472Z,22
2017-11-24T05:42:58.095Z,22
2017-11-24T05:43:59.994Z,22
2017-11-24T05:45:01.597Z,21.9
2017-11-24T05:46:03.209Z,22
2017-11-24T05:47:05.106Z,22
2017-11-24T05:48:07.023Z,22
2017-11-24T05:49:08.622Z,22.1
2017-11-24T05:50:10.523Z,22.1
2017-11-24T05:51:11.863Z,22.1
2017-11-24T05:52:13.482Z,22
2017-11-24T05:53:15.380Z,22.1
2017-11-24T05:54:17.276Z,22.1
2017-11-24T05:55:19.180Z,22
2017-11-24T05:56:21.079Z,22.1
2017-11-24T05:57:22.418Z,22
2017-11-24T05:58:24.316Z,22.1
2017-11-24T05:59:26.220Z,22.1
2017-11-24T06:00:27.568Z,22
2017-11-24T06:01:29.194Z,22.1
2017-11-24T06:02:31.085Z,22.1
2017-11-24T06:03:33.004Z,22.1
2017-11-24T06:04:34.903Z,22.1
2017-11-24T06:05:36.507Z,22.1
2017-11-24T06:06:37.553Z,22.1
2017-11-24T06:07:39.460Z,22.1
2017-11-24T06:08:41.084Z,22.1
2017-11-24T06:09:42.407Z,22.1
2017-11-24T06:10:44.042Z,22.1
2017-11-24T06:11:45.933Z,22.1
2017-11-24T06:12:47.577Z,22.1
2017-11-24T06:13:48.919Z,22.1
2017-11-24T06:14:50.520Z,22.1
2017-11-24T06:15:52.160Z,22.1
2017-11-24T06:16:54.077Z,22.1
2017-11-24T06:17:55.405Z,22.2
2017-11-24T06:18:56.745Z,22.1
2017-11-24T06:19:58.644Z,22.1
2017-11-24T06:21:00.279Z,22.2
2017-11-24T06:22:02.181Z,22.2
2017-11-24T06:23:03.524Z,22.1
2017-11-24T06:24:05.143Z,22.1
2017-11-24T06:25:06.766Z,22.2
2017-11-24T06:26:08.401Z,22.1
2017-11-24T06:27:10.023Z,22.1
2017-11-24T06:28:11.651Z,22.2
2017-11-24T06:29:12.975Z,22.2
2017-11-24T06:30:14.587Z,22.2
2017-11-24T06:31:16.485Z,22.2
2017-11-24T06:32:18.386Z,22.2
2017-11-24T06:33:19.987Z,22.2
2017-11-24T06:34:21.608Z,22.2
2017-11-24T06:35:23.508Z,22.2
2017-11-24T06:36:25.405Z,22.2
2017-11-24T06:37:27.315Z,22.2
2017-11-24T06:38:28.934Z,22.2
2017-11-24T06:39:30.831Z,22.2
2017-11-24T06:40:32.453Z,22.2
2017-11-24T06:41:34.054Z,22.2
2017-11-24T06:42:35.700Z,22.2
2017-11-24T06:43:37.332Z,22.3
2017-11-24T06:44:38.949Z,22.2
2017-11-24T06:45:40.544Z,22.3
2017-11-24T06:46:42.164Z,22.3
2017-11-24T06:47:43.786Z,22.3
2017-11-24T06:48:45.409Z,22.2
2017-11-24T06:49:46.482Z,22.3
2017-11-24T06:50:48.412Z,22.3
2017-11-24T06:51:50.035Z,22.3
2017-11-24T06:52:51.657Z,22.3
2017-11-24T06:53:53.255Z,22.3
2017-11-24T06:54:54.882Z,22.2
2017-11-24T06:55:56.202Z,22.3
2017-11-24T06:56:57.827Z,22.3
2017-11-24T06:57:58.898Z,22.3
2017-11-24T06:59:00.802Z,22.3
2017-11-24T07:00:01.873Z,22.3
2017-11-24T07:01:02.649Z,22.3
2017-11-24T07:02:04.545Z,22.3
2017-11-24T07:03:06.175Z,22.3
2017-11-24T07:04:07.521Z,22.2
2017-11-24T07:05:09.428Z,22.2
2017-11-24T07:06:11.331Z,22.2
2017-11-24T07:07:13.236Z,22.4
2017-11-24T07:08:15.144Z,22.3
2017-11-24T07:09:16.511Z,22.2
2017-11-24T07:10:18.128Z,22.2
2017-11-24T07:11:20.033Z,22.3
2017-11-24T07:12:21.938Z,22.3
2017-11-24T07:13:23.836Z,22.3
2017-11-24T07:14:25.460Z,22.2
2017-11-24T07:15:27.089Z,22.2
2017-11-24T07:16:28.414Z,22.3
2017-11-24T07:17:29.743Z,22.3
2017-11-24T07:18:31.666Z,22.4
2017-11-24T07:19:33.571Z,22.3
2017-11-24T07:20:35.486Z,22.2
2017-11-24T07:21:37.408Z,22.2
2017-11-24T07:22:39.304Z,22.2
2017-11-24T07:23:40.933Z,22.3
2017-11-24T07:24:42.845Z,22.3
2017-11-24T07:25:44.192Z,22.2
2017-11-24T07:26:45.545Z,22.3
2017-11-24T07:27:47.482Z,22.2
2017-11-24T07:28:49.385Z,22.3
2017-11-24T07:29:51.012Z,22.3
2017-11-24T07:30:52.916Z,22.3
2017-11-24T07:31:54.820Z,22.4
2017-11-24T07:32:56.725Z,22.4
2017-11-24T07:33:58.332Z,22.3
2017-11-24T07:35:00.227Z,22.4
2017-11-24T07:36:02.227Z,22.3
2017-11-24T07:37:04.129Z,22.3
2017-11-24T07:38:05.758Z,22.4
2017-11-24T07:39:07.385Z,22.4
2017-11-24T07:40:09.291Z,22.3
2017-11-24T07:41:10.638Z,22.3
2017-11-24T07:42:12.243Z,22.4
2017-11-24T07:43:13.874Z,22.3
2017-11-24T07:44:15.491Z,22.4
2017-11-24T07:45:17.093Z,22.4
2017-11-24T07:46:18.994Z,22.4
2017-11-24T07:47:20.323Z,22.4
2017-11-24T07:48:21.947Z,22.3
2017-11-24T07:49:23.571Z,22.3
2017-11-24T07:50:25.470Z,22.3
2017-11-24T07:51:27.369Z,22.3
2017-11-24T07:52:28.699Z,22.4
2017-11-24T07:53:30.611Z,22.4
2017-11-24T07:54:32.511Z,22.4
2017-11-24T07:55:34.139Z,22.4
2017-11-24T07:56:35.532Z,22.4
2017-11-24T07:57:36.877Z,22.4
2017-11-24T07:58:38.501Z,22.3
2017-11-24T07:59:40.400Z,22.4
2017-11-24T08:00:42.033Z,22.4
2017-11-24T08:01:43.719Z,22.3
2017-11-24T08:02:45.881Z,22.3
2017-11-24T08:03:47.616Z,22.4
2017-11-24T08:04:48.720Z,22.3
2017-11-24T08:05:50.245Z,22.4
2017-11-24T08:06:51.854Z,22.4
2017-11-24T08:07:53.182Z,22.4
2017-11-24T08:08:55.081Z,22.4
2017-11-24T08:09:56.707Z,22.3
2017-11-24T08:10:58.367Z,22.3
2017-11-24T08:12:00.270Z,22.4
2017-11-24T08:13:01.876Z,22.4
2017-11-24T08:14:03.199Z,22.5
2017-11-24T08:15:05.108Z,22.5
2017-11-24T08:16:06.713Z,22.4
2017-11-24T08:17:08.676Z,22.4
2017-11-24T08:18:10.299Z,22.4
2017-11-24T08:19:12.202Z,22.5
2017-11-24T08:20:13.826Z,22.4
2017-11-24T08:21:15.726Z,22.4
2017-11-24T08:22:17.628Z,22.4
2017-11-24T08:23:19.256Z,22.3
2017-11-24T08:24:21.226Z,22.4
2017-11-24T08:25:22.991Z,22.4
2017-11-24T08:26:24.621Z,22.5
2017-11-24T08:27:25.669Z,22.4
2017-11-24T08:28:27.575Z,22.4
2017-11-24T08:29:29.476Z,22.4
2017-11-24T08:30:31.077Z,22.4
2017-11-24T08:31:32.975Z,22.4
2017-11-24T08:32:34.874Z,22.4
2017-11-24T08:33:36.779Z,22.4
2017-11-24T08:34:38.390Z,22.5
2017-11-24T08:35:39.719Z,22.4
2017-11-24T08:36:41.347Z,22.4
2017-11-24T08:37:42.975Z,22.3
2017-11-24T08:38:44.879Z,22.4
2017-11-24T08:39:46.505Z,22.4
2017-11-24T08:40:47.549Z,22.5
2017-11-24T08:41:49.450Z,22.4
2017-11-24T08:42:51.072Z,22.5
2017-11-24T08:43:52.695Z,22.4
2017-11-24T08:44:54.606Z,22.4
2017-11-24T08:45:56.229Z,22.4
2017-11-24T08:46:57.552Z,22.5
2017-11-24T08:47:59.451Z,22.4
2017-11-24T08:49:01.368Z,22.5
2017-11-24T08:50:03.261Z,22.5
2017-11-24T08:51:05.164Z,22.5
2017-11-24T08:52:06.788Z,22.5
2017-11-24T08:53:08.412Z,22.4
2017-11-24T08:54:09.738Z,22.5
2017-11-24T08:55:11.375Z,22.5
2017-11-24T08:56:13.268Z,22.4
2017-11-24T08:57:14.615Z,22.5
2017-11-24T08:58:16.287Z,22.5
2017-11-24T08:59:18.192Z,22.5
2017-11-24T09:00:20.083Z,22.4
2017-11-24T09:01:21.984Z,22.5
2017-11-24T09:02:23.600Z,22.5
2017-11-24T09:03:25.496Z,22.5
2017-11-24T09:04:27.123Z,22.5
2017-11-24T09:05:29.021Z,22.5
2017-11-24T09:06:30.923Z,22.5
2017-11-24T09:07:32.823Z,22.5
2017-11-24T09:08:34.449Z,22.5
2017-11-24T09:09:35.771Z,22.5
2017-11-24T09:10:37.371Z,22.5
2017-11-24T09:11:39.270Z,22.5
2017-11-24T09:12:40.894Z,22.6
2017-11-24T09:13:42.238Z,22.5
2017-11-24T09:14:44.137Z,22.6
2017-11-24T09:15:45.765Z,22.5
2017-11-24T09:16:47.370Z,22.5
2017-11-24T09:17:48.993Z,22.5
2017-11-24T09:18:50.598Z,22.5
2017-11-24T09:19:51.939Z,22.6
2017-11-24T09:20:53.563Z,22.5
2017-11-24T09:21:55.470Z,22.5
2017-11-24T09:22:57.094Z,22.5
2017-11-24T09:23:58.142Z,22.6
2017-11-24T09:24:59.743Z,22.5
2017-11-24T09:26:01.364Z,22.5
2017-11-24T09:27:03.271Z,22.5
2017-11-24T09:28:04.336Z,22.6
2017-11-24T09:29:05.958Z,22.5
2017-11-24T09:30:07.286Z,22.6
2017-11-24T09:31:08.614Z,22.6
2017-11-24T09:32:10.216Z,22.5
2017-11-24T09:33:11.539Z,22.6
2017-11-24T09:34:13.162Z,22.6
2017-11-24T09:35:14.782Z,22.6
2017-11-24T09:36:16.408Z,22.6
2017-11-24T09:37:17.750Z,22.6
2017-11-24T09:38:19.672Z,22.6
2017-11-24T09:39:21.568Z,22.6
2017-11-24T09:40:22.918Z,22.6
2017-11-24T09:41:24.546Z,22.6
2017-11-24T09:42:26.173Z,22.6
2017-11-24T09:43:27.796Z,22.6
2017-11-24T09:44:29.118Z,22.6
2017-11-24T09:45:30.723Z,22.7
2017-11-24T09:46:32.626Z,22.6
2017-11-24T09:47:34.530Z,22.6
2017-11-24T09:48:36.146Z,22.7
2017-11-24T09:49:37.818Z,22.6
2017-11-24T09:50:39.717Z,22.7
2017-11-24T09:51:41.618Z,22.7
2017-11-24T09:52:43.234Z,22.6
2017-11-24T09:53:45.136Z,22.7
2017-11-24T09:54:46.774Z,22.6
2017-11-24T09:55:48.677Z,22.6
2017-11-24T09:56:50.004Z,22.6
2017-11-24T09:57:51.907Z,22.6
2017-11-24T09:58:53.813Z,22.7
2017-11-24T09:59:55.131Z,22.7
2017-11-24T10:00:56.481Z,22.7
2017-11-24T10:01:57.867Z,22.7
2017-11-24T10:02:58.934Z,22.6
2017-11-24T10:04:00.557Z,22.7
2017-11-24T10:05:01.964Z,22.6
2017-11-24T10:06:03.040Z,22.6
2017-11-24T10:07:04.980Z,22.7
2017-11-24T10:08:06.880Z,22.7
2017-11-24T10:09:08.516Z,22.6
2017-11-24T10:10:09.579Z,22.6
2017-11-24T10:11:11.187Z,22.7
2017-11-24T10:12:12.534Z,22.6
2017-11-24T10:13:13.881Z,22.7
2017-11-24T10:14:15.233Z,22.7
2017-11-24T10:15:17.132Z,22.7
2017-11-24T10:16:18.462Z,22.7
2017-11-24T10:17:20.067Z,22.7
2017-11-24T10:18:21.386Z,22.7
2017-11-24T10:19:22.730Z,22.6
2017-11-24T10:20:24.632Z,22.6
2017-11-24T10:21:26.532Z,22.7
2017-11-24T10:22:27.853Z,22.6
2017-11-24T10:23:29.458Z,22.7
2017-11-24T10:24:30.801Z,22.6
2017-11-24T10:25:32.518Z,22.8
2017-11-24T10:26:34.608Z,22.7
2017-11-24T10:27:35.933Z,22.7
2017-11-24T10:28:37.551Z,22.6
2017-11-24T10:29:38.878Z,22.6
2017-11-24T10:30:40.779Z,22.7
2017-11-24T10:31:42.109Z,22.7
2017-11-24T10:32:44.014Z,22.7
2017-11-24T10:33:45.635Z,22.7
2017-11-24T10:34:47.534Z,22.7
2017-11-24T10:35:49.155Z,22.8
2017-11-24T10:36:51.056Z,22.8
2017-11-24T10:37:52.682Z,22.8
2017-11-24T10:38:54.303Z,22.7
2017-11-24T10:39:55.632Z,22.7
2017-11-24T10:40:57.532Z,22.7
2017-11-24T10:41:59.170Z,22.7
2017-11-24T10:43:00.773Z,22.8
2017-11-24T10:44:02.399Z,22.7
2017-11-24T10:45:03.741Z,22.8
2017-11-24T10:46:04.798Z,22.7
2017-11-24T10:47:05.843Z,22.8
2017-11-24T10:48:07.173Z,22.7
2017-11-24T10:49:08.518Z,22.7
2017-11-24T10:50:10.417Z,22.7
2017-11-24T10:51:12.041Z,22.7
2017-11-24T10:52:13.941Z,22.8
2017-11-24T10:53:14.999Z,22.7
2017-11-24T10:54:16.618Z,22.7
2017-11-24T10:55:18.240Z,22.8
2017-11-24T10:56:19.868Z,22.8
2017-11-24T10:57:21.765Z,22.8
2017-11-24T10:58:23.387Z,22.7
2017-11-24T10:59:25.290Z,22.8
2017-11-24T11:00:26.934Z,22.7
2017-11-24T11:01:28.832Z,22.7
2017-11-24T11:02:30.437Z,22.8
2017-11-24T11:03:32.060Z,22.8
2017-11-24T11:04:33.406Z,22.8
2017-11-24T11:05:35.028Z,22.8
2017-11-24T11:06:36.937Z,22.7
2017-11-24T11:07:38.263Z,22.8
2017-11-24T11:08:39.885Z,22.7
2017-11-24T11:09:41.226Z,22.7
2017-11-24T11:10:42.550Z,22.7
2017-11-24T11:11:44.450Z,22.8
2017-11-24T11:12:46.352Z,22.8
2017-11-24T11:13:48.261Z,22.8
2017-11-24T11:14:49.882Z,22.8
2017-11-24T11:15:51.201Z,22.8
2017-11-24T11:16:52.825Z,22.8
2017-11-24T11:17:54.449Z,22.8
2017-11-24T11:18:55.800Z,22.7
2017-11-24T11:19:57.702Z,22.8
2017-11-24T11:20:59.040Z,22.8
2017-11-24T11:22:00.671Z,22.8
2017-11-24T11:23:02.582Z,22.8
2017-11-24T11:24:04.482Z,22.7
2017-11-24T11:25:05.807Z,22.8
2017-11-24T11:26:07.713Z,22.8
2017-11-24T11:27:09.611Z,22.8
2017-11-24T11:28:11.234Z,22.8
2017-11-24T11:29:12.857Z,22.8
2017-11-24T11:30:13.912Z,22.8
2017-11-24T11:31:15.806Z,22.8
2017-11-24T11:32:17.427Z,22.8
2017-11-24T11:33:18.756Z,22.8
2017-11-24T11:34:20.380Z,22.8
2017-11-24T11:35:21.999Z,22.8
2017-11-24T11:36:23.321Z,22.8
2017-11-24T11:37:25.234Z,22.8
2017-11-24T11:38:26.835Z,22.8
2017-11-24T11:39:28.187Z,22.8
2017-11-24T11:40:29.803Z,22.8
2017-11-24T11:41:31.427Z,22.9
2017-11-24T11:42:33.327Z,22.8
2017-11-24T11:43:34.950Z,22.8
2017-11-24T11:44:36.574Z,22.8
2017-11-24T11:45:38.482Z,22.8
2017-11-24T11:46:40.102Z,22.8
2017-11-24T11:47:41.145Z,22.9
2017-11-24T11:48:43.046Z,22.9
2017-11-24T11:49:44.649Z,22.9
2017-11-24T11:50:46.328Z,22.8
2017-11-24T11:51:48.227Z,22.8
2017-11-24T11:52:49.859Z,22.8
2017-11-24T11:53:51.481Z,22.8
2017-11-24T11:54:53.107Z,22.8
2017-11-24T11:55:54.447Z,22.9
2017-11-24T11:56:55.798Z,22.8
2017-11-24T11:57:57.139Z,22.8
2017-11-24T11:58:58.488Z,22.9
2017-11-24T11:59:59.808Z,22.9
2017-11-24T12:01:01.409Z,22.9
2017-11-24T12:02:03.031Z,22.8
2017-11-24T12:03:04.967Z,22.9
2017-11-24T12:04:06.870Z,22.8
2017-11-24T12:05:08.499Z,22.8
2017-11-24T12:06:10.398Z,22.9
2017-11-24T12:07:11.748Z,22.8
2017-11-24T12:08:13.095Z,22.9
2017-11-24T12:09:14.997Z,22.9
2017-11-24T12:10:16.597Z,22.9
2017-11-24T12:11:18.552Z,22.9
2017-11-24T12:12:20.176Z,22.9
2017-11-24T12:13:21.799Z,22.8
2017-11-24T12:14:23.122Z,22.9
2017-11-24T12:15:25.029Z,22.9
2017-11-24T12:16:27.024Z,22.8
2017-11-24T12:17:28.652Z,22.9
2017-11-24T12:18:29.703Z,22.8
2017-11-24T12:19:31.320Z,22.9
2017-11-24T12:20:33.218Z,22.9
2017-11-24T12:21:34.828Z,22.9
2017-11-24T12:22:36.453Z,22.9
2017-11-24T12:23:38.113Z,22.9
2017-11-24T12:24:39.165Z,22.9
2017-11-24T12:25:40.816Z,22.8
2017-11-24T12:26:42.487Z,22.9
2017-11-24T12:27:44.092Z,22.9
2017-11-24T12:28:45.714Z,22.9
2017-11-24T12:29:47.039Z,22.9
2017-11-24T12:30:48.664Z,22.9
2017-11-24T12:31:49.986Z,22.8
2017-11-24T12:32:51.611Z,22.9
2017-11-24T12:33:53.232Z,22.8
2017-11-24T12:34:54.834Z,22.8
2017-11-24T12:35:55.890Z,22.8
2017-11-24T12:36:57.232Z,22.8
2017-11-24T12:37:58.858Z,22.8
2017-11-24T12:39:00.205Z,22.8
2017-11-24T12:40:01.803Z,22.9
2017-11-24T12:41:03.146Z,22.8
2017-11-24T12:42:04.784Z,22.9
2017-11-24T12:43:05.829Z,22.8
2017-11-24T12:44:07.741Z,22.8
2017-11-24T12:45:09.068Z,22.8
2017-11-24T12:46:10.965Z,22.8
2017-11-24T12:47:12.862Z,22.9
2017-11-24T12:48:13.910Z,22.8
2017-11-24T12:49:15.812Z,22.8
2017-11-24T12:50:17.435Z,22.8
2017-11-24T12:51:18.489Z,22.8
2017-11-24T12:52:20.107Z,22.8
2017-11-24T12:53:21.435Z,22.8
2017-11-24T12:54:22.780Z,22.8
2017-11-24T12:55:24.124Z,22.9
2017-11-24T12:56:25.723Z,22.9
2017-11-24T12:57:27.345Z,22.9
2017-11-24T12:58:28.694Z,22.8
2017-11-24T12:59:29.759Z,22.7
2017-11-24T13:00:31.657Z,22.8
2017-11-24T13:01:33.280Z,22.8
2017-11-24T13:02:35.184Z,22.8
2017-11-24T13:03:37.091Z,22.7
2017-11-24T13:04:38.987Z,22.9
2017-11-24T13:05:40.661Z,22.8
2017-11-24T13:06:42.010Z,22.7
2017-11-24T13:07:43.631Z,22.7
2017-11-24T13:08:45.230Z,22.8
2017-11-24T13:09:47.134Z,22.8
2017-11-24T13:10:49.038Z,22.8
2017-11-24T13:11:50.384Z,22.7
2017-11-24T13:12:51.729Z,22.8
2017-11-24T13:13:53.355Z,22.8
2017-11-24T13:14:54.987Z,22.7
2017-11-24T13:15:56.886Z,22.8
2017-11-24T13:16:58.787Z,22.7
2017-11-24T13:18:00.388Z,22.8
2017-11-24T13:19:02.329Z,22.8
2017-11-24T13:20:04.230Z,22.7
2017-11-24T13:21:06.128Z,22.8
2017-11-24T13:22:07.451Z,22.7
2017-11-24T13:23:09.057Z,22.7
2017-11-24T13:24:10.951Z,22.7
2017-11-24T13:25:12.548Z,22.8
2017-11-24T13:26:14.448Z,22.7
2017-11-24T13:27:16.350Z,22.8
2017-11-24T13:28:18.252Z,22.8
2017-11-24T13:29:19.873Z,22.7
2017-11-24T13:30:21.776Z,22.7
2017-11-24T13:31:23.373Z,22.9
2017-11-24T13:32:24.997Z,22.8
2017-11-24T13:33:26.897Z,22.8
2017-11-24T13:34:28.799Z,22.7
2017-11-24T13:35:30.143Z,22.8
2017-11-24T13:36:32.043Z,22.8
2017-11-24T13:37:33.950Z,22.8
2017-11-24T13:38:35.849Z,22.8
2017-11-24T13:39:37.456Z,22.7
2017-11-24T13:40:38.773Z,22.7
2017-11-24T13:41:39.855Z,22.8
2017-11-24T13:42:41.481Z,22.8
2017-11-24T13:43:43.115Z,22.7
2017-11-24T13:44:44.440Z,22.7
2017-11-24T13:45:46.072Z,22.7
2017-11-24T13:46:47.389Z,22.8
2017-11-24T13:47:49.288Z,22.8